createdAt,value
2023-05-21T00:04:32.850Z,14.9
2023-05-21T00:10:25.650Z,14.7
2023-05-21T00:16:17.595Z,14.7
2023-05-21T00:22:10.209Z,14.6
2023-05-21T00:28:02.717Z,14.8
2023-05-21T00:33:55.002Z,14.6
2023-05-21T00:39:47.746Z,14.5
2023-05-21T00:45:42.760Z,14.5
2023-05-21T00:51:34.879Z,14.5
2023-05-21T00:57:29.878Z,14.4
2023-05-21T01:03:21.983Z,14.4
2023-05-21T01:09:14.579Z,14.2
2023-05-21T01:15:06.740Z,14.2
2023-05-21T01:20:59.858Z,14.4
2023-05-21T01:26:51.830Z,14.1
2023-05-21T01:32:44.602Z,14.2
2023-05-21T01:38:37.673Z,14.2
2023-05-21T01:44:30.133Z,14.1
2023-05-21T01:50:22.088Z,14
2023-05-21T01:56:15.004Z,14.1
2023-05-21T02:02:07.497Z,13.9
2023-05-21T02:08:00.240Z,14
2023-05-21T02:13:52.195Z,13.9
2023-05-21T02:19:44.014Z,14
2023-05-21T02:25:35.060Z,14
2023-05-21T02:31:28.693Z,14.1
2023-05-21T02:37:19.694Z,13.9
2023-05-21T02:43:12.926Z,13.8
2023-05-21T02:49:06.633Z,13.9
2023-05-21T02:54:59.177Z,14
2023-05-21T03:00:51.184Z,13.9
2023-05-21T03:06:43.136Z,13.8
2023-05-21T03:12:35.506Z,13.8
2023-05-21T03:18:27.425Z,13.8
2023-05-21T03:24:20.323Z,13.8
2023-05-21T03:30:12.720Z,13.7
2023-05-21T03:36:04.527Z,13.9
2023-05-21T03:41:56.450Z,13.8
2023-05-21T03:47:49.781Z,13.9
2023-05-21T03:53:41.980Z,13.8
2023-05-21T03:59:35.415Z,13.7
2023-05-21T04:05:27.948Z,13.9
2023-05-21T04:11:20.844Z,13.9
2023-05-21T04:17:13.081Z,13.9
2023-05-21T04:23:05.549Z,13.8
2023-05-21T04:28:57.478Z,13.8
2023-05-21T04:34:49.536Z,13.8
2023-05-21T04:40:41.533Z,13.8
2023-05-21T04:46:34.398Z,13.8
2023-05-21T04:52:29.101Z,13.8
2023-05-21T04:58:21.925Z,13.9
2023-05-21T05:04:14.799Z,13.9
2023-05-21T05:10:06.374Z,13.9
2023-05-21T05:15:58.769Z,13.8
2023-05-21T05:21:50.658Z,14
2023-05-21T05:27:42.696Z,13.9
2023-05-21T05:33:35.571Z,14.1
2023-05-21T05:39:27.454Z,14.1
2023-05-21T05:45:19.474Z,14.2
2023-05-21T05:51:11.690Z,14.5
2023-05-21T05:57:03.451Z,14.5
2023-05-21T06:02:55.169Z,14.5
2023-05-21T06:08:47.847Z,14.6
2023-05-21T06:14:42.477Z,14.8
2023-05-21T06:20:36.807Z,15.1
2023-05-21T06:26:28.480Z,15.5
2023-05-21T06:32:20.393Z,15.6
2023-05-21T06:38:13.749Z,15.9
2023-05-21T06:44:08.015Z,16.3
2023-05-21T06:50:00.636Z,16.2
2023-05-21T06:55:53.249Z,16.5
2023-05-21T07:01:45.629Z,16.9
2023-05-21T07:07:38.129Z,17
2023-05-21T07:13:29.969Z,16.3
2023-05-21T07:19:22.771Z,16.6
2023-05-21T07:25:15.227Z,16.5
2023-05-21T07:31:07.489Z,17
2023-05-21T07:36:59.684Z,17.1
2023-05-21T07:42:51.771Z,17.6
2023-05-21T07:48:43.857Z,17.8
2023-05-21T07:54:36.542Z,17.9
2023-05-21T08:00:30.110Z,17.9
2023-05-21T08:06:27.278Z,18
2023-05-21T08:12:22.030Z,18.2
2023-05-21T08:18:19.537Z,18
2023-05-21T08:24:10.856Z,18.1
2023-05-21T08:30:05.379Z,17.9
2023-05-21T08:35:57.590Z,18
2023-05-21T08:41:54.342Z,18.3
2023-05-21T08:47:47.071Z,18.5
2023-05-21T08:54:46.776Z,18.8
2023-05-21T09:00:39.415Z,18.6
2023-05-21T09:06:31.213Z,18.5
2023-05-21T09:12:23.153Z,18.5
2023-05-21T09:18:15.717Z,18.5
2023-05-21T09:24:08.006Z,18.4
2023-05-21T09:30:00.385Z,18.7
2023-05-21T09:35:52.258Z,19
2023-05-21T09:41:44.179Z,19
2023-05-21T09:47:35.971Z,19
2023-05-21T09:53:27.611Z,19.2
2023-05-21T09:59:19.810Z,19.3
2023-05-21T10:05:12.235Z,19.2
2023-05-21T10:11:06.675Z,19.6
2023-05-21T10:16:59.179Z,19.8
2023-05-21T10:22:51.252Z,20
2023-05-21T10:28:43.738Z,20
2023-05-21T10:34:35.637Z,20.1
2023-05-21T10:40:27.959Z,20.2
2023-05-21T10:46:20.654Z,20.3
2023-05-21T10:52:14.972Z,20.4
2023-05-21T10:58:07.582Z,20.7
2023-05-21T11:04:00.381Z,20.7
2023-05-21T11:09:54.996Z,20.5
2023-05-21T11:15:47.404Z,21
2023-05-21T11:21:39.342Z,20.8
2023-05-21T11:27:31.538Z,21.2
2023-05-21T11:33:23.605Z,21.2
2023-05-21T11:39:15.820Z,21.6
2023-05-21T11:45:08.353Z,21.5
2023-05-21T11:50:59.735Z,21.5
2023-05-21T11:56:51.321Z,21.5
2023-05-21T12:03:52.654Z,21.4
2023-05-21T12:09:42.200Z,21.8
2023-05-21T12:15:33.827Z,22
2023-05-21T12:21:25.285Z,22
2023-05-21T12:27:16.831Z,22
2023-05-21T12:33:08.169Z,22.2
2023-05-21T12:38:59.449Z,22.5
2023-05-21T12:44:50.544Z,22.4
2023-05-21T12:50:42.107Z,22.6
2023-05-21T12:56:34.425Z,23
2023-05-21T13:02:26.572Z,23
2023-05-21T13:08:17.634Z,22.9
2023-05-21T13:14:08.780Z,23.1
2023-05-21T13:20:00.360Z,23.5
2023-05-21T13:25:52.395Z,23.6
2023-05-21T13:31:43.487Z,23.6
2023-05-21T13:37:34.407Z,23.5
2023-05-21T13:43:26.505Z,23.7
2023-05-21T13:49:18.700Z,23.6
2023-05-21T13:55:10.751Z,24
2023-05-21T14:01:03.298Z,23.9
2023-05-21T14:06:55.253Z,24.1
2023-05-21T14:12:47.281Z,24.1
2023-05-21T14:18:45.408Z,24.2
2023-05-21T14:24:37.297Z,24
2023-05-21T14:30:29.939Z,24.4
2023-05-21T14:36:22.037Z,24.3
2023-05-21T14:42:14.420Z,24.4
2023-05-21T14:48:06.878Z,24.4
2023-05-21T14:53:59.412Z,25
2023-05-21T14:59:51.317Z,24.7
2023-05-21T15:05:43.147Z,24.8
2023-05-21T15:11:34.581Z,24.7
2023-05-21T15:17:26.718Z,25.1
2023-05-21T15:23:19.091Z,25.2
2023-05-21T15:29:10.614Z,25.3
2023-05-21T15:35:03.627Z,25.1
2023-05-21T15:40:55.930Z,25
2023-05-21T15:46:48.383Z,25.1
2023-05-21T15:52:41.023Z,25
2023-05-21T15:58:35.280Z,25.3
2023-05-21T16:04:26.784Z,25.1
2023-05-21T16:10:18.856Z,25.4
2023-05-21T16:16:10.838Z,25
2023-05-21T16:22:02.988Z,25
2023-05-21T16:27:57.588Z,24.8
2023-05-21T16:33:49.938Z,24.8
2023-05-21T16:39:41.047Z,24.5
2023-05-21T16:45:32.522Z,24.7
2023-05-21T16:51:25.264Z,24.6
2023-05-21T16:57:17.898Z,24.3
2023-05-21T17:03:09.848Z,24.2
2023-05-21T17:09:01.950Z,24.1
2023-05-21T17:14:54.272Z,24
2023-05-21T17:20:46.694Z,23.9
2023-05-21T17:26:36.527Z,23.7
2023-05-21T17:32:26.490Z,23.7
2023-05-21T17:38:16.622Z,23.5
2023-05-21T17:44:06.681Z,23.5
2023-05-21T17:49:58.337Z,23.5
2023-05-21T17:55:50.527Z,23.3
2023-05-21T18:01:42.673Z,23.2
2023-05-21T18:07:35.376Z,23.4
2023-05-21T18:13:27.137Z,23.1
2023-05-21T18:19:19.381Z,23
2023-05-21T18:25:12.270Z,23
2023-05-21T18:31:04.636Z,23
2023-05-21T18:36:56.771Z,22.9
2023-05-21T18:42:48.631Z,22.7
2023-05-21T18:48:40.699Z,22.7
2023-05-21T18:54:32.520Z,22.6
2023-05-21T19:00:24.466Z,22.6
2023-05-21T19:06:16.294Z,22.3
2023-05-21T19:12:07.884Z,22.2
2023-05-21T19:17:59.933Z,22.3
2023-05-21T19:23:53.508Z,22
2023-05-21T19:29:46.044Z,22
2023-05-21T19:35:38.971Z,21.9
2023-05-21T19:41:30.868Z,21.8
2023-05-21T19:47:22.999Z,21.8
2023-05-21T19:53:15.272Z,21.7
2023-05-21T19:59:07.658Z,21.5
2023-05-21T20:05:00.392Z,21.5
2023-05-21T20:10:53.023Z,21.5
2023-05-21T20:16:45.369Z,21.4
2023-05-21T20:22:37.719Z,21.3
2023-05-21T20:28:29.836Z,21.3
2023-05-21T20:34:21.943Z,21.1
2023-05-21T20:40:15.038Z,21.2
2023-05-21T20:46:06.763Z,21
2023-05-21T20:51:59.431Z,21.1
2023-05-21T20:57:51.331Z,20.8
2023-05-21T21:03:44.851Z,20.8
2023-05-21T21:09:39.046Z,20.6
2023-05-21T21:15:32.536Z,20.5
2023-05-21T21:21:25.469Z,20.5
2023-05-21T21:27:17.544Z,20.3
2023-05-21T21:33:10.224Z,20.2
2023-05-21T21:39:04.407Z,19.9
2023-05-21T21:44:56.723Z,19.9
2023-05-21T21:50:49.357Z,19.9
2023-05-21T21:56:40.993Z,19.9
2023-05-21T22:02:34.475Z,19.6
2023-05-21T22:08:26.701Z,19.6
2023-05-21T22:14:18.927Z,19.5
2023-05-21T22:20:11.501Z,19.4
2023-05-21T22:26:03.454Z,19.3
2023-05-21T22:31:55.994Z,19.3
2023-05-21T22:37:48.159Z,19
2023-05-21T22:43:40.749Z,19
2023-05-21T22:49:32.484Z,19
2023-05-21T22:55:25.188Z,18.9
2023-05-21T23:01:17.808Z,18.4
2023-05-21T23:07:10.395Z,18.8
2023-05-21T23:13:03.470Z,18.3
2023-05-21T23:18:56.112Z,18.6
2023-05-21T23:24:49.928Z,18.5
2023-05-21T23:30:42.395Z,18.5
2023-05-21T23:36:32.831Z,18.4
2023-05-21T23:42:25.063Z,17.8
2023-05-21T23:48:17.481Z,18.1
2023-05-21T23:55:18.432Z,18.1
